Telemetry
Timestamp Node Air Util TX Channel Util Battery Uptime Voltage Current Barometric Pressure Relative Humidity Temperature Gas Resistance
2026-05-05 16:28:42 4e18 0.11% 0.0% 101% 1373026 4.23 V
2026-05-05 16:28:41 4e18 0.11% 0.0% 101% 1373026 4.23 V
2026-05-05 16:27:03 PTRH 0.08% 0.0% 54% 788740 3.75 V
2026-05-05 16:27:03 PTRH 0.08% 0.0% 54% 788740 3.75 V
2026-05-05 16:26:47 HT77 0.25% 3.4% 101% 804695 4.28 V
2026-05-05 16:26:47 HT77 0.25% 3.4% 101% 804695 4.28 V
2026-05-05 16:25:49 2625 0.3% 0.0% 100% 752520 4.19 V
2026-05-05 16:25:49 2625 0.3% 0.0% 100% 752520 4.19 V
2026-05-05 16:23:22 RX01 0.02% 0.0% 101% 17367 0.0 V
2026-05-05 16:23:22 RX01 0.02% 0.0% 101% 17367 0.0 V
2026-05-05 16:21:25 e536 0.14% 0.0% 95% 47401245 4.12 V
2026-05-05 16:21:05 SMWS 0.88% 0.0% 45% 625129 3.68 V
2026-05-05 16:21:05 SMWS 0.88% 0.0% 45% 625129 3.68 V
2026-05-05 16:19:47 HAM2 2.21% 3.2% 92% 1029801 4.08 V
2026-05-05 16:19:39 HAM2 2.21% 3.2% 92% 1029801 4.08 V
2026-05-05 16:19:38 HAM2 2.21% 3.2% 92% 1029801 4.08 V
2026-05-05 16:19:38 HAM2 2.21% 3.2% 92% 1029801 4.08 V
2026-05-05 16:19:38 HAM2 2.21% 3.2% 92% 1029801 4.08 V
2026-05-05 16:19:20 HAM2 2.21% 3.2% 92% 1029801 4.08 V
2026-05-05 16:19:20 HAM2 2.21% 3.2% 92% 1029801 4.08 V
2026-05-05 16:19:20 HAM2 2.21% 3.2% 92% 1029801 4.08 V
2026-05-05 16:19:00 LMBr 2.32% 6.5% 94% 3691707 4.11 V
2026-05-05 16:19:00 LMBr 2.32% 6.5% 94% 3691707 4.11 V
2026-05-05 16:18:51 7274 0.6% 0.6% 100% 7624835 4.12 V
2026-05-05 16:18:50 7274 0.6% 0.6% 100% 7624835 4.12 V
2026-05-05 16:18:50 7274 0.6% 0.6% 100% 7624835 4.12 V
2026-05-05 16:18:32 LMBr 2.32% 6.5% 94% 3691707 4.11 V
2026-05-05 16:18:31 LMBr 2.32% 6.5% 94% 3691707 4.11 V
2026-05-05 16:18:31 LMBr 2.32% 6.5% 94% 3691707 4.11 V
2026-05-05 16:18:25 LMBr 2.32% 6.5% 94% 3691707 4.11 V
2026-05-05 16:18:25 LMBr 2.32% 6.5% 94% 3691707 4.11 V
2026-05-05 16:18:24 LMBr 2.32% 6.5% 94% 3691707 4.11 V
2026-05-05 16:18:24 LMBr 2.32% 6.5% 94% 3691707 4.11 V
2026-05-05 16:14:42 RLSC 995.89 hPa 71.78% 18.33°C
2026-05-05 16:14:42 RLSC 995.89 hPa 71.78% 18.33°C
2026-05-05 16:13:58 DJMH 0.36% 0.0% 87% 6313012 4.04 V
2026-05-05 16:13:58 DJMH 0.36% 0.0% 87% 6313012 4.04 V
2026-05-05 16:12:27 IIXF 847.32 hPa 36.49% 25.57°C 185.55 Ohm
2026-05-05 16:12:27 IIXF 847.32 hPa 36.49% 25.57°C 185.55 Ohm
2026-05-05 16:12:15 ah01 0.76% 0.0% 97% 1769540 4.16 V
2026-05-05 16:12:15 ah01 0.76% 0.0% 97% 1769540 4.16 V
2026-05-05 16:12:14 ah01 0.76% 0.0% 97% 1769540 4.16 V
2026-05-05 16:12:14 ah01 0.76% 0.0% 97% 1769540 4.16 V
2026-05-05 16:12:06 HT77 867.51 hPa 49.7% 20.92°C
2026-05-05 16:12:05 HT77 867.51 hPa 49.7% 20.92°C
2026-05-05 16:12:01 IIXF 0.84% 1.2% 101% 106988 4.29 V
2026-05-05 16:12:00 IIXF 0.84% 1.2% 101% 106988 4.29 V
2026-05-05 16:10:55 ah03
2026-05-05 16:10:53 ah03
2026-05-05 16:10:53 ah03
2026-05-05 16:10:44 ah03
2026-05-05 16:10:43 ah03
2026-05-05 16:10:42 ah03
2026-05-05 16:09:17 Wdst 1.64% 3.4% 68% 4208548 3.88 V
2026-05-05 16:09:17 Wdst 1.64% 3.4% 68% 4208548 3.88 V
2026-05-05 16:09:17 Wdst 1.64% 3.4% 68% 4208548 3.88 V
2026-05-05 16:08:57 HT77 0.23% 3.4% 101% 803615 4.29 V
2026-05-05 16:08:57 HT77 0.23% 3.4% 101% 803615 4.29 V
2026-05-05 16:08:49 LMBs 24.77°C
2026-05-05 16:08:49 LMBs 24.77°C
2026-05-05 16:08:26 RF67 0.84% 1.7% 101% 21548 3.47 V
2026-05-05 16:08:25 RF67 0.84% 1.7% 101% 21548 3.47 V
2026-05-05 16:08:21 RF67 0.84% 1.7% 101% 21548 3.47 V
2026-05-05 16:08:20 RF67 0.84% 1.7% 101% 21548 3.47 V
2026-05-05 16:08:18 RF67 0.84% 1.7% 101% 21548 3.47 V
2026-05-05 16:08:17 RF67 0.84% 1.7% 101% 21548 3.47 V
2026-05-05 16:08:17 RF67 0.84% 1.7% 101% 21548 3.47 V
2026-05-05 16:07:36 Jim1 1.45% 8.8% 91% 6668470 4.07 V
2026-05-05 16:07:27 2-D 0.43% 100% 12759173 4.19 V
2026-05-05 16:07:26 2-D 0.43% 100% 12759173 4.19 V
2026-05-05 16:07:24 LMGB 0.07% 0.0% 101% 112955 -0.0 V
2026-05-05 16:07:24 LMGB 0.07% 0.0% 101% 112955 -0.0 V
2026-05-05 16:07:04 LRX1 0.5% 4.0% 0% 1145 2.86 V
2026-05-05 16:07:04 LRX1 0.5% 4.0% 0% 1145 2.86 V
2026-05-05 16:04:23 PMT2 23.64°C
2026-05-05 16:04:21 PMT2 23.64°C
2026-05-05 16:04:21 PMT2 23.64°C
2026-05-05 16:04:17 PMT2 23.64°C
2026-05-05 16:04:17 PMT2 23.64°C
2026-05-05 16:02:31 2369 0.78% 18.3% 4% 108917 3.18 V
2026-05-05 16:02:31 2369 0.78% 18.3% 4% 108917 3.18 V
2026-05-05 16:02:28 RF06 1.34% 18.7% 101% 107590 -0.0 V
2026-05-05 16:02:24 2369 0.78% 18.3% 4% 108917 3.18 V
2026-05-05 16:02:24 2369 0.78% 18.3% 4% 108917 3.18 V
2026-05-05 16:02:16 2369 0.78% 18.3% 4% 108917 3.18 V
2026-05-05 16:02:16 2369 0.78% 18.3% 4% 108917 3.18 V
2026-05-05 16:02:16 2369 0.78% 18.3% 4% 108917 3.18 V
2026-05-05 16:02:06 RF06 1.34% 18.7% 101% 107590 -0.0 V
2026-05-05 16:02:05 RF06 1.34% 18.7% 101% 107590 -0.0 V
2026-05-05 16:02:02 RF06 1.34% 18.7% 101% 107590 -0.0 V
2026-05-05 16:02:02 RF06 1.34% 18.7% 101% 107590 -0.0 V
2026-05-05 16:02:02 RF06 1.34% 18.7% 101% 107590 -0.0 V
2026-05-05 16:01:55 MELK 0.04% 0.0% 96% 4162155 4.14 V
2026-05-05 16:01:54 MELK 0.04% 0.0% 96% 4162155 4.14 V
2026-05-05 16:01:50 MELK 0.04% 0.0% 96% 4162155 4.14 V
2026-05-05 16:01:49 MELK 0.04% 0.0% 96% 4162155 4.14 V
2026-05-05 16:01:48 MELK 0.04% 0.0% 96% 4162155 4.14 V
2026-05-05 16:01:48 MELK 0.04% 0.0% 96% 4162155 4.14 V
2026-05-05 16:01:48 MELK 0.04% 0.0% 96% 4162155 4.14 V
2026-05-05 16:01:32 RF02 0.75% 4.1% 101% 2595366 4.21 V
2026-05-05 16:01:31 RF02 0.75% 4.1% 101% 2595366 4.21 V
2026-05-05 16:01:26 RF02 0.75% 4.1% 101% 2595366 4.21 V
2026-05-05 16:01:24 RF02 0.75% 4.1% 101% 2595366 4.21 V
2026-05-05 16:01:23 RF02 0.75% 4.1% 101% 2595366 4.21 V
2026-05-05 16:01:23 RF02 0.75% 4.1% 101% 2595366 4.21 V
2026-05-05 15:55:49 2625 0.26% 2.1% 100% 750720 4.2 V
2026-05-05 15:55:49 2625 0.26% 2.1% 100% 750720 4.2 V
2026-05-05 15:54:27 IIXF 847.54 hPa 36.21% 25.34°C 187.98 Ohm
2026-05-05 15:54:27 IIXF 847.54 hPa 36.21% 25.34°C 187.98 Ohm
2026-05-05 15:54:01 IIXF 0.88% 1.8% 101% 105908 4.3 V
2026-05-05 15:54:00 IIXF 0.88% 1.8% 101% 105908 4.3 V
2026-05-05 15:53:23 CLA1 3.25% 6.2% 101% 618586 4.08 V
2026-05-05 15:53:23 CLA1 3.25% 6.2% 101% 618586 4.08 V
2026-05-05 15:53:20 CLA1 3.25% 6.2% 101% 618586 4.08 V
2026-05-05 15:53:20 CLA1 3.25% 6.2% 101% 618586 4.08 V
2026-05-05 15:52:59 PcL1 0.14% 0.0% 101% 65032 4.22 V
2026-05-05 15:52:59 PcL1 0.14% 0.0% 101% 65032 4.22 V
2026-05-05 15:52:46 CLA1 3.25% 6.2% 101% 618586 4.08 V
2026-05-05 15:52:45 CLA1 3.25% 6.2% 101% 618586 4.08 V
2026-05-05 15:52:41 4e18 0.14% 0.0% 101% 1370866 4.23 V
2026-05-05 15:52:41 4e18 0.14% 0.0% 101% 1370866 4.23 V
2026-05-05 15:52:36 CLA1 3.25% 6.2% 101% 618586 4.08 V
2026-05-05 15:52:36 CLA1 3.25% 6.2% 101% 618586 4.08 V
2026-05-05 15:52:36 CLA1 3.25% 6.2% 101% 618586 4.08 V
2026-05-05 15:52:26 ah03 0.51% 21.0% 76% 1354713 3.95 V
2026-05-05 15:52:25 ah03 0.51% 21.0% 76% 1354713 3.95 V
2026-05-05 15:52:25 ah03 0.51% 21.0% 76% 1354713 3.95 V
2026-05-05 15:51:32 976c 0.26% 0.0% 101% 4508985 4.22 V
2026-05-05 15:51:31 976c 0.26% 0.0% 101% 4508985 4.22 V
2026-05-05 15:51:03 PTRH 0.14% 0.0% 54% 786580 3.76 V
2026-05-05 15:51:03 PTRH 0.14% 0.0% 54% 786580 3.76 V
2026-05-05 15:50:51 Gert 1.87% 5.9% 101% 172338 4.38 V
2026-05-05 15:50:50 Gert 1.87% 5.9% 101% 172338 4.38 V
2026-05-05 15:50:48 Gert 1.87% 5.9% 101% 172338 4.38 V
2026-05-05 15:50:47 LRX1 1005.42 hPa 35.59% 26.32°C
2026-05-05 15:50:46 LRX1 1005.42 hPa 35.59% 26.32°C
2026-05-05 15:50:46 Gert 1.87% 5.9% 101% 172338 4.38 V
2026-05-05 15:50:40 LRX1 1005.42 hPa 35.59% 26.32°C
2026-05-05 15:50:39 LRX1 1005.42 hPa 35.59% 26.32°C
2026-05-05 15:50:35 HAM2 1.76% 9.4% 92% 1028001 4.09 V
2026-05-05 15:50:34 HAM2 1.76% 9.4% 92% 1028001 4.09 V
2026-05-05 15:50:32 6DAB 0.03% 2.5% 101% 46 4.2 V
2026-05-05 15:50:32 6DAB 0.03% 2.5% 101% 46 4.2 V
2026-05-05 15:50:20 Gert 1.87% 5.9% 101% 172338 4.38 V
2026-05-05 15:50:18 Gert 1.87% 5.9% 101% 172338 4.38 V
2026-05-05 15:50:18 Gert 1.87% 5.9% 101% 172338 4.38 V
2026-05-05 15:50:18 Gert 1.87% 5.9% 101% 172338 4.38 V
2026-05-05 15:49:35 LRX1 1005.42 hPa 35.59% 26.32°C
2026-05-05 15:49:35 LRX1 1005.42 hPa 35.59% 26.32°C
2026-05-05 15:49:32 LRX1 1005.42 hPa 35.59% 26.32°C
2026-05-05 15:49:28 LRX1 1005.42 hPa 35.59% 26.32°C
2026-05-05 15:49:21 HAM2 1.76% 9.4% 92% 1028001 4.09 V
2026-05-05 15:49:19 HAM2 1.76% 9.4% 92% 1028001 4.09 V
2026-05-05 15:49:19 HAM2 1.76% 9.4% 92% 1028001 4.09 V
2026-05-05 15:49:19 HAM2 1.76% 9.4% 92% 1028001 4.09 V
2026-05-05 15:49:06 LRX1 0.03% 4.6% 0% 65 3.01 V
2026-05-05 15:49:06 LRX1 0.03% 4.6% 0% 65 3.01 V
2026-05-05 15:49:04 LRX1 0.03% 4.6% 0% 65 3.01 V
2026-05-05 15:49:03 LRX1 0.03% 4.6% 0% 65 3.01 V
2026-05-05 15:47:53 PMT2 1.42% 2.2% 101% 2709262 4.2 V
2026-05-05 15:47:46 PMT2 1.42% 2.2% 101% 2709262 4.2 V
2026-05-05 15:47:45 PMT2 1.42% 2.2% 101% 2709262 4.2 V
2026-05-05 15:47:44 PMT2 1.42% 2.2% 101% 2709262 4.2 V
2026-05-05 15:47:21 RX01 0.02% 0.0% 101% 15206 0.0 V
2026-05-05 15:47:20 RX01 0.02% 0.0% 101% 15206 0.0 V
2026-05-05 15:46:16 LMBt 0.2% 6.9% 91% 37509 4.07 V
2026-05-05 15:46:16 LMBt 0.2% 6.9% 91% 37509 4.07 V
2026-05-05 15:46:13 LMBt 0.2% 6.9% 91% 37509 4.07 V
2026-05-05 15:46:13 LMBt 0.2% 6.9% 91% 37509 4.07 V
2026-05-05 15:46:13 LMBt 0.2% 6.9% 91% 37509 4.07 V
2026-05-05 15:46:13 LMBt 0.2% 6.9% 91% 37509 4.07 V
2026-05-05 15:46:09 LMBt 0.2% 6.9% 91% 37509 4.07 V
2026-05-05 15:46:08 LMBt 0.2% 6.9% 91% 37509 4.07 V
2026-05-05 15:42:51 7274 0.61% 0.0% 100% 7622675 4.11 V
2026-05-05 15:42:50 7274 0.61% 0.0% 100% 7622675 4.11 V
2026-05-05 15:42:50 7274 0.61% 0.0% 100% 7622675 4.11 V
2026-05-05 15:38:47 DOS 2.01% 0.0% 101% 106751 4.23 V
2026-05-05 15:38:47 DOS 2.01% 0.0% 101% 106751 4.23 V
2026-05-05 15:38:42 DOS 2.01% 0.0% 101% 106751 4.23 V
2026-05-05 15:38:40 DOS 2.01% 0.0% 101% 106751 4.23 V
2026-05-05 15:38:25 RF67 0.85% 3.1% 101% 19748 3.48 V
2026-05-05 15:38:24 RF67 0.85% 3.1% 101% 19748 3.48 V
2026-05-05 15:38:24 RF67 0.85% 3.1% 101% 19748 3.48 V
2026-05-05 15:38:07 DOS 2.01% 0.0% 101% 106751 4.23 V
2026-05-05 15:38:07 DOS 2.01% 0.0% 101% 106751 4.23 V
2026-05-05 15:37:27 2-D 0.39% 1.8% 100% 12757372 4.19 V
2026-05-05 15:37:27 2-D 0.39% 1.8% 100% 12757372 4.19 V
2026-05-05 15:36:27 IIXF 847.97 hPa 36.11% 24.92°C 192.58 Ohm
2026-05-05 15:36:27 IIXF 847.97 hPa 36.11% 24.92°C 192.58 Ohm
2026-05-05 15:36:00 IIXF 0.75% 1.2% 101% 104828 4.3 V
2026-05-05 15:36:00 IIXF 0.75% 1.2% 101% 104828 4.3 V
2026-05-05 15:34:41 4e18 0.14% 0.0% 101% 1369785 4.23 V
2026-05-05 15:34:41 4e18 0.14% 0.0% 101% 1369785 4.23 V
2026-05-05 15:34:20 PMT2 24.0°C
2026-05-05 15:34:20 PMT2 24.0°C
2026-05-05 15:33:48 RF01 0.34% 8.6% 101% 242656 4.27 V
2026-05-05 15:33:48 RF01 0.34% 8.6% 101% 242656 4.27 V
2026-05-05 15:33:47 RF01 0.34% 8.6% 101% 242656 4.27 V
2026-05-05 15:33:46 RF01 0.34% 8.6% 101% 242656 4.27 V
2026-05-05 15:33:46 RF01 0.34% 8.6% 101% 242656 4.27 V
2026-05-05 15:33:45 RF01 0.34% 8.6% 101% 242656 4.27 V
2026-05-05 15:33:44 RF01 0.34% 8.6% 101% 242656 4.27 V
2026-05-05 15:33:40 RF01 0.34% 8.6% 101% 242656 4.27 V
2026-05-05 15:33:39 21a9 1014.6 hPa 35.66% 23.22°C
2026-05-05 15:33:39 21a9 1014.6 hPa 35.66% 23.22°C
2026-05-05 15:33:39 RF01 0.34% 8.6% 101% 242656 4.27 V
2026-05-05 15:33:39 RF01 0.34% 8.6% 101% 242656 4.27 V
2026-05-05 15:33:05 21a9 0.23% 2.0% 92% 615735 4.08 V
2026-05-05 15:33:05 21a9 0.23% 2.0% 92% 615735 4.08 V
2026-05-05 15:32:41 RF06 1.04% 18.7% 101% 105790 -0.0 V
2026-05-05 15:32:41 RF06 1.04% 18.7% 101% 105790 -0.0 V
2026-05-05 15:32:41 RF06 1.04% 18.7% 101% 105790 -0.0 V
2026-05-05 15:32:40 JR70 0.13% 85% 5989124 4.02 V
2026-05-05 15:32:40 JR70 0.13% 85% 5989124 4.02 V
2026-05-05 15:32:25 2369 1.03% 19.7% 4% 107116 3.19 V
2026-05-05 15:32:24 2369 1.03% 19.7% 4% 107116 3.19 V
2026-05-05 15:32:16 2369 1.03% 19.7% 4% 107116 3.19 V
2026-05-05 15:32:16 2369 1.03% 19.7% 4% 107116 3.19 V
2026-05-05 15:32:16 2369 1.03% 19.7% 4% 107116 3.19 V
2026-05-05 15:32:07 MELK 0.1% 0.0% 96% 4160355 4.14 V
2026-05-05 15:32:07 MELK 0.1% 0.0% 96% 4160355 4.14 V
2026-05-05 15:32:06 RF06 1.04% 18.7% 101% 105790 -0.0 V
2026-05-05 15:32:06 RF06 1.04% 18.7% 101% 105790 -0.0 V
2026-05-05 15:32:05 MELK 0.1% 0.0% 96% 4160355 4.14 V
2026-05-05 15:32:02 RF06 1.04% 18.7% 101% 105790 -0.0 V
2026-05-05 15:32:02 RF06 1.04% 18.7% 101% 105790 -0.0 V
2026-05-05 15:32:01 RF06 1.04% 18.7% 101% 105790 -0.0 V
2026-05-05 15:31:50 MELK 0.1% 0.0% 96% 4160355 4.14 V
2026-05-05 15:31:48 MELK 0.1% 0.0% 96% 4160355 4.14 V
2026-05-05 15:31:48 MELK 0.1% 0.0% 96% 4160355 4.14 V
2026-05-05 15:31:48 MELK 0.1% 0.0% 96% 4160355 4.14 V
2026-05-05 15:31:46 MRB1 2.29% 16.9% 98% 18202 4.17 V
2026-05-05 15:31:45 MRB1 2.29% 16.9% 98% 18202 4.17 V
2026-05-05 15:31:36 LAM2 1.19% 13.0% 101% 27661 4.37 V
2026-05-05 15:31:36 LAM2 1.19% 13.0% 101% 27661 4.37 V
2026-05-05 15:31:35 LAM2 1.19% 13.0% 101% 27661 4.37 V
2026-05-05 15:31:28 LAM2 1.19% 13.0% 101% 27661 4.37 V
2026-05-05 15:31:27 LAM2 1.19% 13.0% 101% 27661 4.37 V
2026-05-05 15:31:27 LAM2 1.19% 13.0% 101% 27661 4.37 V
2026-05-05 15:31:27 LAM2 1.19% 13.0% 101% 27661 4.37 V
2026-05-05 15:31:23 RF02 0.84% 11.8% 101% 2593566 4.21 V
2026-05-05 15:31:23 RF02 0.84% 11.8% 101% 2593566 4.21 V
2026-05-05 15:31:23 RF02 0.84% 11.8% 101% 2593566 4.21 V
2026-05-05 15:31:16 LMGB 0.08% 0.0% 101% 110786 -0.0 V
2026-05-05 15:31:15 LMGB 0.08% 0.0% 101% 110786 -0.0 V
2026-05-05 15:30:25 htec 4.87% 5.2% 101% 52818 4.28 V
2026-05-05 15:30:25 htec 4.87% 5.2% 101% 52818 4.28 V
2026-05-05 15:28:57 ah02 40.08% 25.84°C
2026-05-05 15:28:57 ah02 40.08% 25.84°C
2026-05-05 15:28:56 ah02 40.08% 25.84°C
2026-05-05 15:28:51 ah02 40.08% 25.84°C
2026-05-05 15:28:50 ah02 40.08% 25.84°C
2026-05-05 15:28:50 ah02 40.08% 25.84°C
2026-05-05 15:28:29 ah02 0.04% 11.3% 67% 61 3.87 V
2026-05-05 15:28:27 ah02 0.04% 11.3% 67% 61 3.87 V
2026-05-05 15:28:27 ah02 0.04% 11.3% 67% 61 3.87 V
2026-05-05 15:28:26 ah02 0.04% 11.3% 67% 61 3.87 V
2026-05-05 15:27:02 JR70 0.13% 85% 5989124 4.02 V
2026-05-05 15:27:02 JR70 0.13% 85% 5989124 4.02 V
2026-05-05 15:25:49 2625 0.23% 0.0% 100% 748919 4.19 V
2026-05-05 15:25:48 2625 0.23% 0.0% 100% 748919 4.19 V
2026-05-05 15:24:48 HAM1 3.35% 26.1% 96% 86470 4.13 V
2026-05-05 15:24:48 HAM1 3.35% 26.1% 96% 86470 4.13 V
2026-05-05 15:24:48 HAM1 3.35% 26.1% 96% 86470 4.13 V
2026-05-05 15:24:20 Wdst 1.26% 12.6% 72% 4205848 3.92 V
2026-05-05 15:24:20 Wdst 1.26% 12.6% 72% 4205848 3.92 V
2026-05-05 15:24:20 Wdst 1.26% 12.6% 72% 4205848 3.92 V
2026-05-05 15:23:59 ah01 0.95% 0.0% 94% 1766657 4.11 V
2026-05-05 15:23:58 ah01 0.95% 0.0% 94% 1766657 4.11 V
2026-05-05 15:23:58 ah01 0.95% 0.0% 94% 1766657 4.11 V
2026-05-05 15:23:57 ah01 0.95% 0.0% 94% 1766657 4.11 V
2026-05-05 15:23:57 ah01 0.95% 0.0% 94% 1766657 4.11 V
2026-05-05 15:23:27 MJTM 1.6% 3.3% 101% 1577375 4.21 V
2026-05-05 15:23:27 MJTM 1.6% 3.3% 101% 1577375 4.21 V
2026-05-05 15:23:27 MJTM 1.6% 3.3% 101% 1577375 4.21 V
2026-05-05 15:22:20 ah03 0.53% 13.6% 76% 1352895 3.96 V
2026-05-05 15:22:19 ah03 0.53% 13.6% 76% 1352895 3.96 V
2026-05-05 15:22:19 ah03 0.53% 13.6% 76% 1352895 3.96 V
2026-05-05 15:22:15 ah03 0.53% 13.6% 76% 1352895 3.96 V
2026-05-05 15:22:13 ah03 0.53% 13.6% 76% 1352895 3.96 V
2026-05-05 15:22:12 ah03 0.53% 13.6% 76% 1352895 3.96 V
2026-05-05 15:19:23 HAM2 0.85% 2.8% 92% 1026201 4.09 V
2026-05-05 15:19:22 HAM2 0.85% 2.8% 92% 1026201 4.09 V
2026-05-05 15:19:20 HAM2 0.85% 2.8% 92% 1026201 4.09 V
2026-05-05 15:19:19 HAM2 0.85% 2.8% 92% 1026201 4.09 V
2026-05-05 15:19:19 HAM2 0.85% 2.8% 92% 1026201 4.09 V
2026-05-05 15:18:27 IIXF 848.3 hPa 35.04% 24.0°C 205.51 Ohm
2026-05-05 15:18:27 LMBr 2.38% 9.7% 94% 3688107 4.11 V
2026-05-05 15:18:27 LMBr 2.38% 9.7% 94% 3688107 4.11 V
2026-05-05 15:18:26 IIXF 848.3 hPa 35.04% 24.0°C 205.51 Ohm
2026-05-05 15:18:00 IIXF 0.7% 2.4% 101% 103748 4.29 V
2026-05-05 15:18:00 IIXF 0.7% 2.4% 101% 103748 4.29 V
2026-05-05 15:17:56 PMT2 1.25% 0.0% 101% 2707461 4.2 V
2026-05-05 15:17:56 PMT2 1.25% 0.0% 101% 2707461 4.2 V
2026-05-05 15:17:54 LUK3 1.18% 1.9% 96% 14916912 4.14 V
2026-05-05 15:17:54 LUK3 1.18% 1.9% 96% 14916912 4.14 V
2026-05-05 15:17:43 PMT2 1.25% 0.0% 101% 2707461 4.2 V
2026-05-05 15:17:43 PMT2 1.25% 0.0% 101% 2707461 4.2 V
2026-05-05 15:16:51 PcL1 0.11% 0.0% 101% 62864 4.25 V
2026-05-05 15:16:51 PcL1 0.11% 0.0% 101% 62864 4.25 V
2026-05-05 15:15:23 e536 0.17% 4.4% 94% 47397285 4.12 V
2026-05-05 15:15:03 PTRH 0.19% 0.0% 54% 784420 3.76 V
2026-05-05 15:15:02 PTRH 0.19% 0.0% 54% 784420 3.76 V
2026-05-05 15:14:41 RLSC 995.44 hPa 70.47% 20.86°C
2026-05-05 15:14:41 RLSC 995.44 hPa 70.47% 20.86°C
2026-05-05 15:12:24 1ae9 25.48°C
2026-05-05 15:12:24 1ae9 25.48°C
2026-05-05 15:12:14 1ae9 25.48°C
2026-05-05 15:12:13 1ae9 25.48°C
2026-05-05 15:12:12 1ae9 25.48°C
2026-05-05 15:11:19 RX01 0.04% 0.0% 101% 13044 0.0 V
2026-05-05 15:11:19 RX01 0.04% 0.0% 101% 13044 0.0 V
2026-05-05 15:10:32 L1 4.93% 4.9% 101% 244165 4.24 V
2026-05-05 15:10:31 L1 4.93% 4.9% 101% 244165 4.24 V
2026-05-05 15:10:01 ah03
2026-05-05 15:10:01 ah03
2026-05-05 15:09:58 ah03
2026-05-05 15:09:57 ah03
2026-05-05 15:09:57 ah03
2026-05-05 15:09:16 Wdst 1.01% 0.9% 72% 4204947 3.92 V
2026-05-05 15:09:16 Wdst 1.01% 0.9% 72% 4204947 3.92 V
2026-05-05 15:09:16 Wdst 1.01% 0.9% 72% 4204947 3.92 V
2026-05-05 15:08:49 LMBs 24.13°C
2026-05-05 15:08:48 LMBs 24.13°C
2026-05-05 15:08:22 RF67 0.93% 8.3% 101% 17948 3.48 V
2026-05-05 15:08:22 RF67 0.93% 8.3% 101% 17948 3.48 V
2026-05-05 15:08:22 RF67 0.93% 8.3% 101% 17948 3.48 V
2026-05-05 15:08:21 RF67 0.93% 8.3% 101% 17948 3.48 V
2026-05-05 15:08:17 RF67 0.93% 8.3% 101% 17948 3.48 V
2026-05-05 15:08:17 RF67 0.93% 8.3% 101% 17948 3.48 V
2026-05-05 15:08:17 RF67 0.93% 8.3% 101% 17948 3.48 V
2026-05-05 15:06:50 7274 0.45% 0.0% 100% 7620515 4.12 V
2026-05-05 15:06:50 7274 0.45% 0.0% 100% 7620515 4.12 V
2026-05-05 15:04:29 PMT2 23.87°C
2026-05-05 15:04:28 PMT2 23.87°C
2026-05-05 15:04:19 PMT2 23.87°C
2026-05-05 15:04:12 PMT2 23.87°C
2026-05-05 15:04:12 PMT2 23.87°C
2026-05-05 15:02:38 Gert 1.06% 2.2% 100% 169458 4.19 V
2026-05-05 15:02:37 Gert 1.06% 2.2% 100% 169458 4.19 V
2026-05-05 15:02:27 Gert 1.06% 2.2% 100% 169458 4.19 V
2026-05-05 15:02:27 Gert 1.06% 2.2% 100% 169458 4.19 V
2026-05-05 15:02:23 Gert 1.06% 2.2% 100% 169458 4.19 V
2026-05-05 15:02:23 Gert 1.06% 2.2% 100% 169458 4.19 V
2026-05-05 15:02:23 Gert 1.06% 2.2% 100% 169458 4.19 V
2026-05-05 15:01:51 MELK 0.12% 0.0% 96% 4158555 4.14 V
2026-05-05 15:01:51 MELK 0.12% 0.0% 96% 4158555 4.14 V
2026-05-05 15:01:50 MELK 0.12% 0.0% 96% 4158555 4.14 V
2026-05-05 15:01:50 MELK 0.12% 0.0% 96% 4158555 4.14 V
2026-05-05 15:01:48 MELK 0.12% 0.0% 96% 4158555 4.14 V
2026-05-05 15:01:48 MELK 0.12% 0.0% 96% 4158555 4.14 V
2026-05-05 15:01:23 RF02 1.13% 1.7% 101% 2591766 4.21 V
2026-05-05 15:01:23 RF02 1.13% 1.7% 101% 2591766 4.21 V
2026-05-05 15:01:23 RF02 1.13% 1.7% 101% 2591766 4.21 V
2026-05-05 15:00:27 IIXF 848.17 hPa 37.12% 24.42°C 191.35 Ohm
2026-05-05 15:00:26 IIXF 848.17 hPa 37.12% 24.42°C 191.35 Ohm
2026-05-05 15:00:07 HT77 867.74 hPa 49.66% 22.58°C
2026-05-05 15:00:07 HT77 867.74 hPa 49.66% 22.58°C
2026-05-05 15:00:00 IIXF 0.69% 0.6% 101% 102668 4.3 V
2026-05-05 15:00:00 IIXF 0.69% 0.6% 101% 102668 4.3 V
2026-05-05 14:59:58 ah01 0.95% 0.0% 94% 1765216 4.12 V
2026-05-05 14:59:56 ah01 0.95% 0.0% 94% 1765216 4.12 V
2026-05-05 14:59:54 GTB 0.04% 5.1% 101% 61 4.16 V
2026-05-05 14:59:54 GTB 0.04% 5.1% 101% 61 4.16 V
2026-05-05 14:59:53 ah01 0.95% 0.0% 94% 1765216 4.12 V
2026-05-05 14:59:53 ah01 0.95% 0.0% 94% 1765216 4.12 V
2026-05-05 14:59:52 ah01 0.95% 0.0% 94% 1765216 4.12 V
2026-05-05 14:58:52 2369 1.3% 15.0% 4% 105076 3.19 V
2026-05-05 14:58:41 4e18 0.11% 0.0% 101% 1367625 4.23 V
2026-05-05 14:58:40 4e18 0.11% 0.0% 101% 1367625 4.23 V
2026-05-05 14:58:23 2369 1.3% 15.0% 4% 105076 3.19 V
2026-05-05 14:58:21 2369 1.3% 15.0% 4% 105076 3.19 V
2026-05-05 14:58:20 2369 1.3% 15.0% 4% 105076 3.19 V
2026-05-05 14:58:18 2369 1.3% 15.0% 4% 105076 3.19 V
2026-05-05 14:58:16 2369 1.3% 15.0% 4% 105076 3.19 V
2026-05-05 14:58:15 2369 1.3% 15.0% 4% 105076 3.19 V
2026-05-05 14:58:15 2369 1.3% 15.0% 4% 105076 3.19 V
2026-05-05 14:56:55 JR70 0.21% 87% 5987318 4.03 V
2026-05-05 14:56:54 JR70 0.21% 87% 5987318 4.03 V
2026-05-05 14:55:49 2625 0.39% 2.1% 100% 747119 4.19 V
2026-05-05 14:55:48 2625 0.39% 2.1% 100% 747119 4.19 V
2026-05-05 14:55:26 RF06 1.26% 6.6% 101% 103569 -0.0 V
2026-05-05 14:55:25 RF06 1.26% 6.6% 101% 103569 -0.0 V
2026-05-05 14:55:20 RF06 1.26% 6.6% 101% 103569 -0.0 V
2026-05-05 14:55:20 RF06 1.26% 6.6% 101% 103569 -0.0 V
2026-05-05 14:55:19 RF06 1.26% 6.6% 101% 103569 -0.0 V
2026-05-05 14:55:04 RF06 1.26% 6.6% 101% 103569 -0.0 V
2026-05-05 14:55:02 RF06 1.26% 6.6% 101% 103569 -0.0 V
2026-05-05 14:55:01 RF06 1.26% 6.6% 101% 103569 -0.0 V
2026-05-05 14:55:01 RF06 1.26% 6.6% 101% 103569 -0.0 V
2026-05-05 14:54:57 LMGB 0.08% 0.0% 101% 108607 -0.0 V
2026-05-05 14:54:57 LMGB 0.08% 0.0% 101% 108607 -0.0 V
2026-05-05 14:53:10 MJTM 1.33% 2.3% 101% 1575574 4.22 V
2026-05-05 14:53:09 MJTM 1.33% 2.3% 101% 1575574 4.22 V
2026-05-05 14:51:30 976c 0.47% 0.0% 101% 4505383 4.22 V
2026-05-05 14:51:29 976c 0.47% 0.0% 101% 4505383 4.22 V
2026-05-05 14:49:23 HAM2 1.34% 0.0% 93% 1024400 4.09 V
2026-05-05 14:49:22 HAM2 1.34% 0.0% 93% 1024400 4.09 V
2026-05-05 14:49:19 HAM2 1.34% 0.0% 93% 1024400 4.09 V
2026-05-05 14:49:19 HAM2 1.34% 0.0% 93% 1024400 4.09 V
2026-05-05 14:49:19 HAM2 1.34% 0.0% 93% 1024400 4.09 V
2026-05-05 14:47:46 PMT2 1.39% 5.6% 101% 2705661 4.2 V
2026-05-05 14:47:45 PMT2 1.39% 5.6% 101% 2705661 4.2 V
2026-05-05 14:46:08 LMBt 0.25% 4.0% 92% 33909 4.09 V
2026-05-05 14:46:08 LMBt 0.25% 4.0% 92% 33909 4.09 V
2026-05-05 14:45:28 LUK5 1.46% 0.0% 92% 180464 4.08 V
2026-05-05 14:45:28 LUK5 1.46% 0.0% 92% 180464 4.08 V
2026-05-05 14:42:27 IIXF 847.83 hPa 37.02% 24.46°C 193.6 Ohm
2026-05-05 14:42:26 IIXF 847.83 hPa 37.02% 24.46°C 193.6 Ohm
2026-05-05 14:42:13 1ae9 25.21°C
2026-05-05 14:42:13 1ae9 25.21°C
2026-05-05 14:42:00 IIXF 0.66% 1.8% 101% 101588 4.3 V
2026-05-05 14:42:00 IIXF 0.66% 1.8% 101% 101588 4.3 V
2026-05-05 14:40:44 PcL1 0.11% 0.0% 98% 60696 4.17 V
2026-05-05 14:40:43 PcL1 0.11% 0.0% 98% 60696 4.17 V
2026-05-05 14:39:30 ah03
2026-05-05 14:39:30 ah03
2026-05-05 14:39:25 ah03
2026-05-05 14:39:23 ah03
2026-05-05 14:39:19 ah03
2026-05-05 14:39:18 ah03
2026-05-05 14:39:17 ah03
2026-05-05 14:39:02 PTRH 0.18% 0.0% 50% 782259 3.73 V
2026-05-05 14:39:02 PTRH 0.18% 0.0% 50% 782259 3.73 V
2026-05-05 14:38:35 DOS 2.03% 2.2% 101% 103151 4.2 V
2026-05-05 14:38:35 DOS 2.03% 2.2% 101% 103151 4.2 V
2026-05-05 14:38:34 DOS 2.03% 2.2% 101% 103151 4.2 V
2026-05-05 14:38:33 DOS 2.03% 2.2% 101% 103151 4.2 V
2026-05-05 14:38:06 DOS 2.03% 2.2% 101% 103151 4.2 V
2026-05-05 14:38:06 DOS 2.03% 2.2% 101% 103151 4.2 V
2026-05-05 14:37:25 2-D 0.53% 2.0% 101% 12753772 4.22 V
2026-05-05 14:37:24 2-D 0.53% 2.0% 101% 12753772 4.22 V
2026-05-05 14:36:06 ah01 0.91% 2.2% 94% 1763774 4.12 V
2026-05-05 14:36:06 ah01 0.91% 2.2% 94% 1763774 4.12 V
2026-05-05 14:36:06 ah01 0.91% 2.2% 94% 1763774 4.12 V
2026-05-05 14:36:03 ah01 0.91% 2.2% 94% 1763774 4.12 V
2026-05-05 14:36:01 ah01 0.91% 2.2% 94% 1763774 4.12 V
2026-05-05 14:35:50 ah01 0.91% 2.2% 94% 1763774 4.12 V
2026-05-05 14:35:49 ah01 0.91% 2.2% 94% 1763774 4.12 V
2026-05-05 14:35:22 RF67 0.92% 3.6% 101% 15968 3.49 V
2026-05-05 14:35:22 RF67 0.92% 3.6% 101% 15968 3.49 V
2026-05-05 14:35:20 RF67 0.92% 3.6% 101% 15968 3.49 V
2026-05-05 14:35:18 RX01 0.04% 3.2% 101% 10882 0.0 V
2026-05-05 14:35:17 RF67 0.92% 3.6% 101% 15968 3.49 V
2026-05-05 14:35:17 RX01 0.04% 3.2% 101% 10882 0.0 V
2026-05-05 14:35:17 RF67 0.92% 3.6% 101% 15968 3.49 V
2026-05-05 14:35:17 RF67 0.92% 3.6% 101% 15968 3.49 V
2026-05-05 14:34:11 PMT2 24.09°C
2026-05-05 14:34:10 PMT2 24.09°C
2026-05-05 14:33:35 21a9 1014.38 hPa 33.04% 25.14°C
2026-05-05 14:33:35 21a9 1014.38 hPa 33.04% 25.14°C
2026-05-05 14:33:05 21a9 0.47% 2.1% 95% 612135 4.12 V
2026-05-05 14:33:05 21a9 0.47% 2.1% 95% 612135 4.12 V
2026-05-05 14:32:53 ZS1G 0.06% 9.6% 101% 46 4.27 V
2026-05-05 14:32:53 ZS1G 0.06% 9.6% 101% 46 4.27 V
2026-05-05 14:32:52 ZS1G 0.06% 9.6% 101% 46 4.27 V
2026-05-05 14:32:39 RF02 1.28% 24.6% 101% 2589966 4.21 V
2026-05-05 14:32:38 RF02 1.28% 24.6% 101% 2589966 4.21 V
2026-05-05 14:32:32 RF02 1.28% 24.6% 101% 2589966 4.21 V
2026-05-05 14:32:31 RF02 1.28% 24.6% 101% 2589966 4.21 V
2026-05-05 14:32:31 RF02 1.28% 24.6% 101% 2589966 4.21 V
2026-05-05 14:31:52 MELK 0.02% 0.0% 96% 4156755 4.14 V
2026-05-05 14:31:51 MELK 0.02% 0.0% 96% 4156755 4.14 V
2026-05-05 14:31:51 MELK 0.02% 0.0% 96% 4156755 4.14 V
2026-05-05 14:31:50 MELK 0.02% 0.0% 96% 4156755 4.14 V
2026-05-05 14:31:50 MELK 0.02% 0.0% 96% 4156755 4.14 V
2026-05-05 14:31:41 ZS1G 0.06% 12.6% 101% 46 4.26 V
2026-05-05 14:31:41 ZS1G 0.06% 12.6% 101% 46 4.26 V
2026-05-05 14:31:26 RF02 1.28% 24.6% 101% 2589966 4.21 V
2026-05-05 14:31:26 RF02 1.28% 24.6% 101% 2589966 4.21 V
2026-05-05 14:31:23 RF02 1.28% 24.6% 101% 2589966 4.21 V
2026-05-05 14:31:23 RF02 1.28% 24.6% 101% 2589966 4.21 V
2026-05-05 14:31:23 RF02 1.28% 24.6% 101% 2589966 4.21 V
2026-05-05 14:31:19 ZS1G 0.06% 8.9% 101% 46 4.2 V
2026-05-05 14:31:19 ZS1G 0.06% 8.9% 101% 46 4.2 V
2026-05-05 14:31:10 ZS1G 0.06% 12.6% 101% 46 4.26 V
2026-05-05 14:31:10 ZS1G 0.06% 12.6% 101% 46 4.26 V
2026-05-05 14:31:09 ZS1G 0.06% 12.6% 101% 46 4.26 V
2026-05-05 14:30:58 MRB1 2.23% 10.1% 98% 14555 4.17 V
2026-05-05 14:30:58 MRB1 2.23% 10.1% 98% 14555 4.17 V
2026-05-05 14:30:50 7274 0.34% 0.0% 100% 7618355 4.12 V
2026-05-05 14:30:50 7274 0.34% 0.0% 100% 7618355 4.12 V
2026-05-05 14:30:50 7274 0.34% 0.0% 100% 7618355 4.12 V
2026-05-05 14:30:24 ZS1G 0.06% 8.9% 101% 46 4.2 V
2026-05-05 14:30:23 ZS1G 0.06% 8.9% 101% 46 4.2 V
2026-05-05 14:29:44 ZS1G 0.06% 8.9% 101% 46 4.2 V
2026-05-05 14:29:43 ZS1G 0.06% 8.9% 101% 46 4.2 V
2026-05-05 14:29:43 ZS1G 0.06% 8.9% 101% 46 4.2 V
2026-05-05 14:29:25 SMWS 0.86% 0.0% 48% 618407 3.7 V
2026-05-05 14:29:24 SMWS 0.86% 0.0% 48% 618407 3.7 V
2026-05-05 14:26:51 JR70 0.22% 83% 5985512 4.01 V
2026-05-05 14:26:50 JR70 0.22% 83% 5985512 4.01 V
2026-05-05 14:26:44 ah02 39.88% 26.14°C
2026-05-05 14:26:43 ah02 39.88% 26.14°C
2026-05-05 14:26:43 ah02 39.88% 26.14°C
2026-05-05 14:26:38 ah02 39.88% 26.14°C
2026-05-05 14:26:38 ah02 39.88% 26.14°C
2026-05-05 14:26:37 ah02 39.88% 26.14°C
2026-05-05 14:26:16 ah02 0.04% 6.8% 67% 61 3.87 V
2026-05-05 14:26:16 ah02 0.04% 6.8% 67% 61 3.87 V
2026-05-05 14:26:13 ah02 0.04% 6.8% 67% 61 3.87 V
2026-05-05 14:26:12 ah02 0.04% 6.8% 67% 61 3.87 V
2026-05-05 14:26:12 ah02 0.04% 6.8% 67% 61 3.87 V
2026-05-05 14:26:12 ah02 0.04% 6.8% 67% 61 3.87 V
2026-05-05 14:25:49 2625 0.54% 1.6% 100% 745319 4.19 V
2026-05-05 14:25:48 2625 0.54% 1.6% 100% 745319 4.19 V
2026-05-05 14:25:05 1808 2.08% 14.7% 101% 22733 -0.0 V
2026-05-05 14:25:04 1808 2.08% 14.7% 101% 22733 -0.0 V
2026-05-05 14:24:27 IIXF 848.0 hPa 37.86% 24.39°C 198.48 Ohm
2026-05-05 14:24:26 IIXF 848.0 hPa 37.86% 24.39°C 198.48 Ohm
2026-05-05 14:24:23 Wdst 1.06% 5.0% 71% 4202247 3.91 V
2026-05-05 14:24:22 Wdst 1.06% 5.0% 71% 4202247 3.91 V
2026-05-05 14:24:22 Wdst 1.06% 5.0% 71% 4202247 3.91 V
2026-05-05 14:24:03 HT77 866.01 hPa 49.53% 23.32°C
2026-05-05 14:24:02 HT77 866.01 hPa 49.53% 23.32°C
2026-05-05 14:24:00 IIXF 0.63% 1.8% 101% 100508 4.3 V
2026-05-05 14:24:00 IIXF 0.63% 1.8% 101% 100508 4.3 V
2026-05-05 14:23:51 MJTM 1.25% 8.4% 101% 1573774 4.22 V
2026-05-05 14:23:51 MJTM 1.25% 8.4% 101% 1573774 4.22 V
2026-05-05 14:23:50 MJTM 1.25% 8.4% 101% 1573774 4.22 V
2026-05-05 14:23:42 MJTM 1.25% 8.4% 101% 1573774 4.22 V
2026-05-05 14:23:41 MJTM 1.25% 8.4% 101% 1573774 4.22 V
2026-05-05 14:23:27 LAM2 1.36% 7.4% 101% 23581 4.33 V
2026-05-05 14:23:26 LAM2 1.36% 7.4% 101% 23581 4.33 V
2026-05-05 14:23:26 LAM2 1.36% 7.4% 101% 23581 4.33 V
2026-05-05 14:23:26 LAM2 1.36% 7.4% 101% 23581 4.33 V
2026-05-05 14:23:26 2369 0.88% 9.9% 5% 102976 3.2 V
2026-05-05 14:23:22 2369 0.88% 9.9% 5% 102976 3.2 V
2026-05-05 14:23:22 2369 0.88% 9.9% 5% 102976 3.2 V
2026-05-05 14:23:22 2369 0.88% 9.9% 5% 102976 3.2 V
2026-05-05 14:23:17 2369 0.88% 9.9% 5% 102976 3.2 V
2026-05-05 14:23:16 2369 0.88% 9.9% 5% 102976 3.2 V
2026-05-05 14:23:15 2369 0.88% 9.9% 5% 102976 3.2 V
2026-05-05 14:23:15 2369 0.88% 9.9% 5% 102976 3.2 V
2026-05-05 14:23:08 MJTM 1.25% 8.4% 101% 1573774 4.22 V
2026-05-05 14:23:07 MJTM 1.25% 8.4% 101% 1573774 4.22 V
2026-05-05 14:22:44 RF01 0.48% 6.5% 101% 238392 4.26 V
2026-05-05 14:22:41 RF01 0.48% 6.5% 101% 238392 4.26 V
2026-05-05 14:22:41 RF01 0.48% 6.5% 101% 238392 4.26 V
2026-05-05 14:22:41 RF01 0.48% 6.5% 101% 238392 4.26 V
2026-05-05 14:22:36 RF01 0.48% 6.5% 101% 238392 4.26 V
2026-05-05 14:22:36 RF01 0.48% 6.5% 101% 238392 4.26 V
2026-05-05 14:22:36 RF01 0.48% 6.5% 101% 238392 4.26 V
2026-05-05 14:20:49 HT77 0.29% 3.4% 101% 797135 4.29 V
2026-05-05 14:20:48 HT77 0.29% 3.4% 101% 797135 4.29 V
2026-05-05 14:20:05 RF06 1.02% 17.9% 101% 101469 -0.0 V
2026-05-05 14:20:05 RF06 1.02% 17.9% 101% 101469 -0.0 V
2026-05-05 14:20:05 RF06 1.02% 17.9% 101% 101469 -0.0 V
2026-05-05 14:20:04 RF06 1.02% 17.9% 101% 101469 -0.0 V
2026-05-05 14:20:02 RF06 1.02% 17.9% 101% 101469 -0.0 V
2026-05-05 14:20:01 RF06 1.02% 17.9% 101% 101469 -0.0 V
2026-05-05 14:20:01 RF06 1.02% 17.9% 101% 101469 -0.0 V
2026-05-05 14:19:40 Jim1 1.03% 2.7% 91% 6661990 4.07 V
2026-05-05 14:19:40 Jim1 1.03% 2.7% 91% 6661990 4.07 V
2026-05-05 14:19:40 Jim1 1.03% 2.7% 91% 6661990 4.07 V
2026-05-05 14:19:33 Jim1 1.03% 2.7% 91% 6661990 4.07 V
2026-05-05 14:19:32 Jim1 1.03% 2.7% 91% 6661990 4.07 V
2026-05-05 14:19:25 HAM2 1.83% 1.7% 93% 1022600 4.09 V
2026-05-05 14:19:24 HAM2 1.83% 1.7% 93% 1022600 4.09 V
2026-05-05 14:19:22 HAM2 1.83% 1.7% 93% 1022600 4.09 V
2026-05-05 14:19:22 HAM2 1.83% 1.7% 93% 1022600 4.09 V
2026-05-05 14:19:22 HAM2 1.83% 1.7% 93% 1022600 4.09 V
2026-05-05 14:19:20 HAM2 1.83% 1.7% 93% 1022600 4.09 V
2026-05-05 14:19:20 HAM2 1.83% 1.7% 93% 1022600 4.09 V
2026-05-05 14:19:20 HAM2 1.83% 1.7% 93% 1022600 4.09 V
2026-05-05 14:18:49 LMGB 0.07% 0.0% 101% 106440 -0.0 V
2026-05-05 14:18:49 LMGB 0.07% 0.0% 101% 106440 -0.0 V
2026-05-05 14:18:24 LMBr 2.2% 15.5% 94% 3684506 4.11 V
2026-05-05 14:18:24 LMBr 2.2% 15.5% 94% 3684506 4.11 V
2026-05-05 14:18:19 PMT2 1.5% 0.0% 101% 2703861 4.2 V
2026-05-05 14:18:18 PMT2 1.5% 0.0% 101% 2703861 4.2 V
2026-05-05 14:17:46 PMT2 1.5% 0.0% 101% 2703861 4.2 V
2026-05-05 14:17:46 PMT2 1.5% 0.0% 101% 2703861 4.2 V
2026-05-05 14:17:43 PMT2 1.5% 0.0% 101% 2703861 4.2 V
2026-05-05 14:17:42 PMT2 1.5% 0.0% 101% 2703861 4.2 V
2026-05-05 14:16:44 ah03 0.53% 20.5% 77% 1348949 3.96 V
2026-05-05 14:16:44 ah03 0.53% 20.5% 77% 1348949 3.96 V
2026-05-05 14:16:40 ah03 0.53% 20.5% 77% 1348949 3.96 V
2026-05-05 14:16:40 ah03 0.53% 20.5% 77% 1348949 3.96 V
2026-05-05 14:16:39 ah03 0.53% 20.5% 77% 1348949 3.96 V
2026-05-05 14:16:39 ah03 0.53% 20.5% 77% 1348949 3.96 V
2026-05-05 14:13:57 DJMH 0.48% 0.0% 89% 6305811 4.05 V
2026-05-05 14:13:56 DJMH 0.48% 0.0% 89% 6305811 4.05 V
2026-05-05 14:12:14 1ae9 24.71°C
2026-05-05 14:12:13 1ae9 24.71°C
2026-05-05 14:12:12 1ae9 24.71°C
2026-05-05 14:12:12 1ae9 24.71°C
2026-05-05 14:11:50 JR70 0.17% 1.0% 88% 5984609 4.04 V
2026-05-05 14:11:50 JR70 0.17% 1.0% 88% 5984609 4.04 V
2026-05-05 14:09:59 ZS1G 0.05% 8.2% 101% 46 4.23 V
2026-05-05 14:09:59 ZS1G 0.05% 8.2% 101% 46 4.23 V
2026-05-05 14:09:54 ZS1G 0.05% 8.2% 101% 46 4.23 V
2026-05-05 14:09:52 ZS1G 0.05% 8.2% 101% 46 4.23 V
2026-05-05 14:09:52 ZS1G 0.05% 8.2% 101% 46 4.23 V
2026-05-05 14:08:55 ah03
2026-05-05 14:08:55 ah03
2026-05-05 14:08:50 ah03
2026-05-05 14:08:50 ah03
2026-05-05 14:08:42 ah03
2026-05-05 14:08:41 ah03
2026-05-05 14:08:41 ah03
2026-05-05 14:07:25 2-D 0.46% 100% 12751971 4.2 V
2026-05-05 14:07:24 2-D 0.46% 100% 12751971 4.2 V
2026-05-05 14:06:27 IIXF 848.38 hPa 36.71% 24.53°C 199.56 Ohm
2026-05-05 14:06:26 IIXF 848.38 hPa 36.71% 24.53°C 199.56 Ohm
2026-05-05 14:06:05 BB04 1.23% 0.0% 101% 156918 -0.0 V
2026-05-05 14:06:04 BB04 1.23% 0.0% 101% 156918 -0.0 V
2026-05-05 14:06:03 HT77 865.89 hPa 49.91% 23.74°C
2026-05-05 14:06:03 HT77 865.89 hPa 49.91% 23.74°C
2026-05-05 14:06:00 IIXF 0.66% 1.8% 101% 99428 4.3 V
2026-05-05 14:06:00 IIXF 0.66% 1.8% 101% 99428 4.3 V
2026-05-05 14:05:56 BB04 1.23% 0.0% 101% 156918 -0.0 V
2026-05-05 14:05:55 BB04 1.23% 0.0% 101% 156918 -0.0 V
2026-05-05 14:05:55 BB04 1.23% 0.0% 101% 156918 -0.0 V
2026-05-05 14:05:50 BB04 1.23% 0.0% 101% 156918 -0.0 V
2026-05-05 14:05:50 BB04 1.23% 0.0% 101% 156918 -0.0 V
2026-05-05 14:05:50 BB04 1.23% 0.0% 101% 156918 -0.0 V
2026-05-05 14:05:49 ah01 1.09% 0.0% 94% 1761972 4.12 V
2026-05-05 14:05:49 ah01 1.09% 0.0% 94% 1761972 4.12 V
2026-05-05 14:05:48 ah01 1.09% 0.0% 94% 1761972 4.12 V
2026-05-05 14:05:17 RF67 0.64% 7.0% 101% 14167 3.49 V
2026-05-05 14:05:17 RF67 0.64% 7.0% 101% 14167 3.49 V
2026-05-05 14:05:17 RF67 0.64% 7.0% 101% 14167 3.49 V
2026-05-05 14:04:42 RLSC 995.55 hPa 71.3% 21.8°C
2026-05-05 14:04:42 RLSC 995.55 hPa 71.3% 21.8°C
2026-05-05 14:04:36 PcL1 0.11% 0.0% 101% 58529 4.21 V
2026-05-05 14:04:36 PcL1 0.11% 0.0% 101% 58529 4.21 V
2026-05-05 14:04:13 PMT2 23.68°C
2026-05-05 14:04:12 PMT2 23.68°C
2026-05-05 14:04:12 PMT2 23.68°C
2026-05-05 14:03:02 PTRH 0.11% 0.0% 55% 780099 3.76 V
2026-05-05 14:03:02 PTRH 0.11% 0.0% 55% 780099 3.76 V
2026-05-05 14:02:01 MELK 0.02% 0.0% 96% 4154954 4.14 V
2026-05-05 14:02:00 MELK 0.02% 0.0% 96% 4154954 4.14 V
2026-05-05 14:02:00 MELK 0.02% 0.0% 96% 4154954 4.14 V
2026-05-05 14:01:54 MELK 0.02% 0.0% 96% 4154954 4.14 V
2026-05-05 14:01:54 MELK 0.02% 0.0% 96% 4154954 4.14 V
2026-05-05 14:01:51 MELK 0.02% 0.0% 96% 4154954 4.14 V
2026-05-05 14:01:51 MELK 0.02% 0.0% 96% 4154954 4.14 V
2026-05-05 14:01:47 MELK 0.02% 0.0% 96% 4154954 4.14 V
2026-05-05 14:01:47 MELK 0.02% 0.0% 96% 4154954 4.14 V
2026-05-05 14:01:27 RF02 1.31% 3.9% 101% 2588165 4.21 V
2026-05-05 14:01:26 RF02 1.31% 3.9% 101% 2588165 4.21 V
2026-05-05 14:01:24 RF02 1.31% 3.9% 101% 2588165 4.21 V
2026-05-05 14:01:22 RF02 1.31% 3.9% 101% 2588165 4.21 V
2026-05-05 14:01:22 RF02 1.31% 3.9% 101% 2588165 4.21 V
2026-05-05 14:01:22 RF02 1.31% 3.9% 101% 2588165 4.21 V
2026-05-05 13:59:34 ZS1G 0.03% 11.4% 101% 46 4.26 V
2026-05-05 13:59:29 ZS1G 0.03% 11.4% 101% 46 4.26 V
2026-05-05 13:59:17 RX01 0.02% 0.0% 101% 8721 0.0 V
2026-05-05 13:59:16 RX01 0.02% 0.0% 101% 8721 0.0 V
2026-05-05 13:58:28 ZS1G 0.06% 10.6% 101% 46 4.26 V
2026-05-05 13:58:27 ZS1G 0.06% 10.6% 101% 46 4.26 V
2026-05-05 13:58:18 ZS1G 0.06% 10.6% 101% 46 4.26 V
2026-05-05 13:58:17 ZS1G 0.06% 10.6% 101% 46 4.26 V
2026-05-05 13:58:17 ZS1G 0.06% 10.6% 101% 46 4.26 V
2026-05-05 13:55:49 2625 0.43% 4.3% 100% 743519 4.19 V
2026-05-05 13:55:48 2625 0.43% 4.3% 100% 743519 4.19 V
2026-05-05 13:54:49 7274 0.37% 0.0% 100% 7616194 4.11 V
2026-05-05 13:54:49 7274 0.37% 0.0% 100% 7616194 4.11 V
2026-05-05 13:54:49 7274 0.37% 0.0% 100% 7616194 4.11 V
2026-05-05 13:54:24 htec 4.74% 4.1% 101% 47058 4.23 V
2026-05-05 13:54:24 htec 4.74% 4.1% 101% 47058 4.23 V
2026-05-05 13:54:14 Wdst 0.92% 3.0% 72% 4200446 3.92 V
2026-05-05 13:54:14 Wdst 0.92% 3.0% 72% 4200446 3.92 V
2026-05-05 13:54:13 Wdst 0.92% 3.0% 72% 4200446 3.92 V
2026-05-05 13:53:28 MJTM 1.13% 1.0% 101% 1571974 4.24 V
2026-05-05 13:53:28 MJTM 1.13% 1.0% 101% 1571974 4.24 V
2026-05-05 13:53:10 MJTM 1.13% 1.0% 101% 1571974 4.24 V
2026-05-05 13:53:10 MJTM 1.13% 1.0% 101% 1571974 4.24 V
2026-05-05 13:52:29 CLA1 3.15% 4.3% 101% 611374 4.12 V
2026-05-05 13:52:29 CLA1 3.15% 4.3% 101% 611374 4.12 V
2026-05-05 13:52:25 SMWS 0.86% 0.0% 49% 616162 3.72 V
2026-05-05 13:52:25 SMWS 0.86% 0.0% 49% 616162 3.72 V
2026-05-05 13:52:24 CLA1 3.15% 4.3% 101% 611374 4.12 V
2026-05-05 13:52:24 CLA1 3.15% 4.3% 101% 611374 4.12 V
2026-05-05 13:52:24 CLA1 3.15% 4.3% 101% 611374 4.12 V
2026-05-05 13:51:29 976c 0.45% 0.0% 101% 4501783 4.22 V
2026-05-05 13:51:29 976c 0.45% 0.0% 101% 4501783 4.22 V
2026-05-05 13:49:59 ah03 1010.26 hPa 58.92% 18.55°C
2026-05-05 13:49:58 ah03 1010.26 hPa 58.92% 18.55°C
2026-05-05 13:49:55 ah03 1010.26 hPa 58.92% 18.55°C
2026-05-05 13:49:55 ah03 1010.26 hPa 58.92% 18.55°C
2026-05-05 13:49:49 ah03 1010.26 hPa 58.92% 18.55°C
2026-05-05 13:49:48 ah03 1010.26 hPa 58.92% 18.55°C
2026-05-05 13:49:48 ah03 1010.26 hPa 58.92% 18.55°C
2026-05-05 13:49:45 HAM2 1.97% 0.0% 93% 1020800 4.09 V
2026-05-05 13:49:44 HAM2 1.97% 0.0% 93% 1020800 4.09 V
2026-05-05 13:49:40 HAM2 1.97% 0.0% 93% 1020800 4.09 V
2026-05-05 13:49:40 HAM2 1.97% 0.0% 93% 1020800 4.09 V
2026-05-05 13:49:34 HAM2 1.97% 0.0% 93% 1020800 4.09 V
2026-05-05 13:49:33 HAM2 1.97% 0.0% 93% 1020800 4.09 V
2026-05-05 13:49:21 HAM2 1.97% 0.0% 93% 1020800 4.09 V
2026-05-05 13:49:20 HAM2 1.97% 0.0% 93% 1020800 4.09 V
2026-05-05 13:49:20 HAM2 1.97% 0.0% 93% 1020800 4.09 V
2026-05-05 13:48:27 IIXF 847.21 hPa 37.68% 24.59°C 194.16 Ohm
2026-05-05 13:48:26 IIXF 847.21 hPa 37.68% 24.59°C 194.16 Ohm
2026-05-05 13:48:21 2369 0.95% 6.6% 5% 100876 3.21 V
2026-05-05 13:48:20 2369 0.95% 6.6% 5% 100876 3.21 V
2026-05-05 13:48:16 2369 0.95% 6.6% 5% 100876 3.21 V
2026-05-05 13:48:15 2369 0.95% 6.6% 5% 100876 3.21 V
2026-05-05 13:48:15 2369 0.95% 6.6% 5% 100876 3.21 V
2026-05-05 13:48:02 HT77 865.72 hPa 49.85% 24.43°C
2026-05-05 13:48:02 HT77 865.72 hPa 49.85% 24.43°C
2026-05-05 13:48:00 IIXF 0.61% 1.2% 101% 98348 4.29 V
2026-05-05 13:48:00 IIXF 0.61% 1.2% 101% 98348 4.29 V
2026-05-05 13:47:50 PMT2 1.47% 2.2% 101% 2702061 4.2 V
2026-05-05 13:47:49 PMT2 1.47% 2.2% 101% 2702061 4.2 V
2026-05-05 13:47:47 PMT2 1.47% 2.2% 101% 2702061 4.2 V
2026-05-05 13:45:11 RF06 1.28% 6.4% 101% 99369 -0.0 V
2026-05-05 13:45:10 RF06 1.28% 6.4% 101% 99369 -0.0 V
2026-05-05 13:45:10 RF06 1.28% 6.4% 101% 99369 -0.0 V
2026-05-05 13:45:10 RF06 1.28% 6.4% 101% 99369 -0.0 V
2026-05-05 13:45:10 RF06 1.28% 6.4% 101% 99369 -0.0 V
2026-05-05 13:45:02 RF06 1.28% 6.4% 101% 99369 -0.0 V
2026-05-05 13:45:01 RF06 1.28% 6.4% 101% 99369 -0.0 V
2026-05-05 13:45:01 RF06 1.28% 6.4% 101% 99369 -0.0 V
2026-05-05 13:44:48 HT77 0.27% 5.5% 101% 794975 4.29 V
2026-05-05 13:44:48 HT77 0.27% 5.5% 101% 794975 4.29 V
2026-05-05 13:43:57 DJMH 0.4% 3.4% 89% 6304010 4.04 V
2026-05-05 13:43:57 DJMH 0.4% 3.4% 89% 6304010 4.04 V
2026-05-05 13:42:47 LMGB 0.07% 0.0% 101% 104278 -0.0 V
2026-05-05 13:42:47 LMGB 0.07% 0.0% 101% 104278 -0.0 V
2026-05-05 13:39:13 Wdst 0.99% 6.1% 72% 4199546 3.92 V
2026-05-05 13:39:13 Wdst 0.99% 6.1% 72% 4199546 3.92 V
2026-05-05 13:39:13 Wdst 0.99% 6.1% 72% 4199546 3.92 V
2026-05-05 13:38:42 DOS 1.84% 5.4% 99% 99551 4.18 V
2026-05-05 13:38:41 DOS 1.84% 5.4% 99% 99551 4.18 V
2026-05-05 13:38:29 DOS 1.84% 5.4% 99% 99551 4.18 V
2026-05-05 13:38:29 DOS 1.84% 5.4% 99% 99551 4.18 V
2026-05-05 13:38:10 DOS 1.84% 5.4% 99% 99551 4.18 V
2026-05-05 13:38:09 DOS 1.84% 5.4% 99% 99551 4.18 V
2026-05-05 13:38:07 DOS 1.84% 5.4% 99% 99551 4.18 V
2026-05-05 13:38:06 DOS 1.84% 5.4% 99% 99551 4.18 V
2026-05-05 13:38:06 DOS 1.84% 5.4% 99% 99551 4.18 V
2026-05-05 13:37:24 2-D 0.39% 101% 12750171 4.23 V
2026-05-05 13:37:24 2-D 0.39% 101% 12750171 4.23 V
2026-05-05 13:37:15 LMBt 0.29% 0.0% 93% 29769 4.1 V
2026-05-05 13:37:14 LMBt 0.29% 0.0% 93% 29769 4.1 V
2026-05-05 13:37:10 LMBt 0.29% 0.0% 93% 29769 4.1 V
2026-05-05 13:37:10 LMBt 0.29% 0.0% 93% 29769 4.1 V
2026-05-05 13:37:08 LMBt 0.29% 0.0% 93% 29769 4.1 V
2026-05-05 13:37:08 LMBt 0.29% 0.0% 93% 29769 4.1 V
2026-05-05 13:36:15 ah01 1.12% 1.0% 94% 1760171 4.11 V
2026-05-05 13:36:15 ah01 1.12% 1.0% 94% 1760171 4.11 V
2026-05-05 13:36:15 ah01 1.12% 1.0% 94% 1760171 4.11 V
2026-05-05 13:35:22 RF67 0.65% 7.1% 101% 12367 3.5 V
2026-05-05 13:35:20 RF67 0.65% 7.1% 101% 12367 3.5 V
2026-05-05 13:35:20 RF67 0.65% 7.1% 101% 12367 3.5 V
2026-05-05 13:35:17 RF67 0.65% 7.1% 101% 12367 3.5 V
2026-05-05 13:35:17 RF67 0.65% 7.1% 101% 12367 3.5 V
2026-05-05 13:35:17 RF67 0.65% 7.1% 101% 12367 3.5 V
2026-05-05 13:34:25 PMT2 23.39°C
2026-05-05 13:34:25 PMT2 23.39°C
2026-05-05 13:34:15 PMT2 23.39°C
2026-05-05 13:34:14 PMT2 23.39°C
2026-05-05 13:33:32 21a9 1014.6 hPa 36.19% 23.47°C
2026-05-05 13:33:32 21a9 1014.6 hPa 36.19% 23.47°C
2026-05-05 13:33:06 21a9 0.37% 0.0% 92% 608535 4.08 V
2026-05-05 13:33:06 21a9 0.37% 0.0% 92% 608535 4.08 V
2026-05-05 13:31:55 MELK 0.02% 0.0% 96% 4153154 4.14 V
2026-05-05 13:31:55 MELK 0.02% 0.0% 96% 4153154 4.14 V
2026-05-05 13:31:54 MELK 0.02% 0.0% 96% 4153154 4.14 V
2026-05-05 13:31:53 MELK 0.02% 0.0% 96% 4153154 4.14 V
2026-05-05 13:31:52 MELK 0.02% 0.0% 96% 4153154 4.14 V
2026-05-05 13:31:52 MELK 0.02% 0.0% 96% 4153154 4.14 V
2026-05-05 13:31:50 ZS1G 0.06% 11.3% 101% 46 4.28 V
2026-05-05 13:31:50 ZS1G 0.06% 11.3% 101% 46 4.28 V
2026-05-05 13:31:47 MELK 0.02% 0.0% 96% 4153154 4.14 V
2026-05-05 13:31:47 MELK 0.02% 0.0% 96% 4153154 4.14 V
2026-05-05 13:31:46 RF02 1.4% 4.0% 101% 2586365 4.21 V
2026-05-05 13:31:45 RF02 1.4% 4.0% 101% 2586365 4.21 V
2026-05-05 13:31:29 RF02 1.4% 4.0% 101% 2586365 4.21 V
2026-05-05 13:31:28 RF02 1.4% 4.0% 101% 2586365 4.21 V
2026-05-05 13:31:28 RF02 1.4% 4.0% 101% 2586365 4.21 V
2026-05-05 13:31:28 RF02 1.4% 4.0% 101% 2586365 4.21 V
2026-05-05 13:31:22 RF02 1.4% 4.0% 101% 2586365 4.21 V
2026-05-05 13:31:22 RF02 1.4% 4.0% 101% 2586365 4.21 V
2026-05-05 13:31:22 RF02 1.4% 4.0% 101% 2586365 4.21 V
2026-05-05 13:31:03 MRB1 2.72% 13.8% 97% 10925 4.16 V
2026-05-05 13:31:02 MRB1 2.72% 13.8% 97% 10925 4.16 V
2026-05-05 13:30:37 MRB1 2.72% 13.8% 97% 10925 4.16 V
2026-05-05 13:30:31 MRB1 2.72% 13.8% 97% 10925 4.16 V
2026-05-05 13:30:31 MRB1 2.72% 13.8% 97% 10925 4.16 V
2026-05-05 13:30:30 MRB1 2.72% 13.8% 97% 10925 4.16 V
2026-05-05 13:30:28 MRB1 2.72% 13.8% 97% 10925 4.16 V
2026-05-05 13:30:28 MRB1 2.72% 13.8% 97% 10925 4.16 V
2026-05-05 13:30:26 IIXF 846.94 hPa 37.79% 24.5°C 196.24 Ohm
2026-05-05 13:30:26 IIXF 846.94 hPa 37.79% 24.5°C 196.24 Ohm
2026-05-05 13:30:03 HT77 865.97 hPa 49.55% 25.23°C
2026-05-05 13:30:03 HT77 865.97 hPa 49.55% 25.23°C
2026-05-05 13:30:00 IIXF 0.61% 1.2% 101% 97268 4.3 V
2026-05-05 13:30:00 IIXF 0.61% 1.2% 101% 97268 4.3 V
2026-05-05 13:28:29 PcL1 0.14% 0.0% 101% 56362 4.22 V
2026-05-05 13:28:29 PcL1 0.14% 0.0% 101% 56362 4.22 V
2026-05-05 13:27:02 PTRH 0.17% 0.0% 56% 777939 3.77 V
2026-05-05 13:27:02 PTRH 0.17% 0.0% 56% 777939 3.77 V
2026-05-05 13:25:53 2625 0.31% 1.7% 100% 741719 4.2 V
2026-05-05 13:25:53 2625 0.31% 1.7% 100% 741719 4.2 V
2026-05-05 13:24:16 Wdst 1.08% 6.8% 73% 4198646 3.92 V
2026-05-05 13:24:16 Wdst 1.08% 6.8% 73% 4198646 3.92 V
2026-05-05 13:24:16 Wdst 1.08% 6.8% 73% 4198646 3.92 V
2026-05-05 13:23:43 MJTM 1.25% 5.5% 101% 1570174 4.21 V
2026-05-05 13:23:42 MJTM 1.25% 5.5% 101% 1570174 4.21 V
2026-05-05 13:23:41 MJTM 1.25% 5.5% 101% 1570174 4.21 V
2026-05-05 13:23:15 RX01 0.02% 0.0% 101% 6560 0.0 V
2026-05-05 13:23:14 RX01 0.02% 0.0% 101% 6560 0.0 V
2026-05-05 13:23:07 MJTM 1.25% 5.5% 101% 1570174 4.21 V
2026-05-05 13:23:07 MJTM 1.25% 5.5% 101% 1570174 4.21 V
2026-05-05 13:22:58 ah02 54.29% 20.2°C
2026-05-05 13:22:56 ah02 54.29% 20.2°C
2026-05-05 13:22:54 ah02 54.29% 20.2°C
2026-05-05 13:22:54 ah02 54.29% 20.2°C
2026-05-05 13:22:54 ah02 54.29% 20.2°C
2026-05-05 13:22:53 ah02 54.29% 20.2°C
2026-05-05 13:22:53 ah02 54.29% 20.2°C
2026-05-05 13:22:32 ah02 0.04% 16.2% 68% 61 3.88 V
2026-05-05 13:22:30 ah02 0.04% 16.2% 68% 61 3.88 V
2026-05-05 13:22:29 ah02 0.04% 16.2% 68% 61 3.88 V
2026-05-05 13:22:29 ah02 0.04% 16.2% 68% 61 3.88 V
2026-05-05 13:19:51 ah03 1010.64 hPa 55.99% 19.84°C
2026-05-05 13:19:51 ah03 1010.64 hPa 55.99% 19.84°C
2026-05-05 13:19:50 ah03 1010.64 hPa 55.99% 19.84°C
2026-05-05 13:19:50 ah03 1010.64 hPa 55.99% 19.84°C
2026-05-05 13:19:48 ah03 1010.64 hPa 55.99% 19.84°C
2026-05-05 13:19:48 ah03 1010.64 hPa 55.99% 19.84°C
2026-05-05 13:19:48 ah03 1010.64 hPa 55.99% 19.84°C
2026-05-05 13:19:36 HAM2 1.68% 3.0% 93% 1019000 4.09 V
2026-05-05 13:19:34 HAM2 1.68% 3.0% 93% 1019000 4.09 V
2026-05-05 13:19:34 HAM2 1.68% 3.0% 93% 1019000 4.09 V
2026-05-05 13:19:30 Jim1 1.08% 3.9% 90% 6658389 4.06 V
2026-05-05 13:19:30 Jim1 1.08% 3.9% 90% 6658389 4.06 V
2026-05-05 13:19:19 HAM2 1.68% 3.0% 93% 1019000 4.09 V
2026-05-05 13:19:19 HAM2 1.68% 3.0% 93% 1019000 4.09 V
2026-05-05 13:19:19 HAM2 1.68% 3.0% 93% 1019000 4.09 V
2026-05-05 13:18:49 7274 0.32% 0.0% 100% 7614034 4.12 V
2026-05-05 13:18:49 7274 0.32% 0.0% 100% 7614034 4.12 V
2026-05-05 13:18:49 7274 0.32% 0.0% 100% 7614034 4.12 V
2026-05-05 13:18:32 LAM2 1.27% 7.6% 101% 19681 4.36 V
2026-05-05 13:18:30 LAM2 1.27% 7.6% 101% 19681 4.36 V
2026-05-05 13:18:29 LAM2 1.27% 7.6% 101% 19681 4.36 V
2026-05-05 13:18:28 LAM2 1.27% 7.6% 101% 19681 4.36 V
2026-05-05 13:18:25 LAM2 1.27% 7.6% 101% 19681 4.36 V
2026-05-05 13:18:25 LAM2 1.27% 7.6% 101% 19681 4.36 V
2026-05-05 13:18:25 LAM2 1.27% 7.6% 101% 19681 4.36 V
2026-05-05 13:18:25 LAM2 1.27% 7.6% 101% 19681 4.36 V
2026-05-05 13:17:28 LMBr 2.24% 6.2% 94% 3680846 4.11 V
2026-05-05 13:17:28 LMBr 2.24% 6.2% 94% 3680846 4.11 V
2026-05-05 13:17:25 LMBr 2.24% 6.2% 94% 3680846 4.11 V
2026-05-05 13:17:25 LMBr 2.24% 6.2% 94% 3680846 4.11 V
2026-05-05 13:17:24 LMBr 2.24% 6.2% 94% 3680846 4.11 V
2026-05-05 13:17:24 LMBr 2.24% 6.2% 94% 3680846 4.11 V
2026-05-05 13:15:12 SMWS 0.86% 0.0% 50% 613933 3.72 V
2026-05-05 13:15:11 SMWS 0.86% 0.0% 50% 613933 3.72 V
2026-05-05 13:14:55 LUK3 0.93% 2.2% 95% 14909531 4.13 V
2026-05-05 13:14:54 LUK3 0.93% 2.2% 95% 14909531 4.13 V
2026-05-05 13:12:26 IIXF 846.77 hPa 37.91% 24.49°C 191.58 Ohm
2026-05-05 13:12:26 IIXF 846.77 hPa 37.91% 24.49°C 191.58 Ohm
2026-05-05 13:12:17 1ae9 23.48°C
2026-05-05 13:12:17 1ae9 23.48°C
2026-05-05 13:12:12 1ae9 23.48°C
2026-05-05 13:12:12 1ae9 23.48°C
2026-05-05 13:12:00 IIXF 0.62% 1.2% 101% 96188 4.3 V
2026-05-05 13:12:00 IIXF 0.62% 1.2% 101% 96188 4.3 V
2026-05-05 13:11:38 JR70 0.26% 7.6% 85% 5980997 4.02 V
2026-05-05 13:11:38 JR70 0.26% 7.6% 85% 5980997 4.02 V
2026-05-05 13:10:34 2369 0.87% 18.8% 6% 98596 3.22 V
2026-05-05 13:10:34 2369 0.87% 18.8% 6% 98596 3.22 V
2026-05-05 13:10:15 2369 0.87% 18.8% 6% 98596 3.22 V
2026-05-05 13:10:15 2369 0.87% 18.8% 6% 98596 3.22 V
2026-05-05 13:10:15 2369 0.87% 18.8% 6% 98596 3.22 V
2026-05-05 13:09:13 Wdst 1.1% 2.0% 72% 4197745 3.92 V
2026-05-05 13:09:13 Wdst 1.1% 2.0% 72% 4197745 3.92 V
2026-05-05 13:09:13 Wdst 1.1% 2.0% 72% 4197745 3.92 V
2026-05-05 13:09:04 LMBs 23.25°C
2026-05-05 13:09:04 LMBs 23.25°C
2026-05-05 13:08:13 RF06 1.42% 4.3% 101% 97149 -0.0 V
2026-05-05 13:08:12 RF06 1.42% 4.3% 101% 97149 -0.0 V
2026-05-05 13:08:09 RF06 1.42% 4.3% 101% 97149 -0.0 V
2026-05-05 13:08:08 RF06 1.42% 4.3% 101% 97149 -0.0 V
2026-05-05 13:08:02 RF06 1.42% 4.3% 101% 97149 -0.0 V
2026-05-05 13:08:01 RF06 1.42% 4.3% 101% 97149 -0.0 V
2026-05-05 13:08:01 RF06 1.42% 4.3% 101% 97149 -0.0 V
2026-05-05 13:07:24 2-D 0.43% 101% 12748371 4.2 V
2026-05-05 13:07:23 2-D 0.43% 101% 12748371 4.2 V
2026-05-05 13:07:01 ah03 0.59% 23.9% 75% 1344769 3.95 V
2026-05-05 13:07:01 ah03 0.59% 23.9% 75% 1344769 3.95 V
2026-05-05 13:07:00 ah03 0.59% 23.9% 75% 1344769 3.95 V
2026-05-05 13:07:00 ah03 0.59% 23.9% 75% 1344769 3.95 V
2026-05-05 13:06:42 LMGB 0.07% 0.0% 101% 102112 -0.0 V
2026-05-05 13:06:41 LMGB 0.07% 0.0% 101% 102112 -0.0 V
2026-05-05 13:05:57 ah01 1.22% 6.4% 94% 1758369 4.12 V
2026-05-05 13:05:57 ah01 1.22% 6.4% 94% 1758369 4.12 V
2026-05-05 13:05:50 ah01 1.22% 6.4% 94% 1758369 4.12 V
2026-05-05 13:05:49 ah01 1.22% 6.4% 94% 1758369 4.12 V
2026-05-05 13:05:49 ah01 1.22% 6.4% 94% 1758369 4.12 V
2026-05-05 13:05:17 RF67 0.63% 8.3% 101% 10567 3.5 V
2026-05-05 13:05:17 RF67 0.63% 8.3% 101% 10567 3.5 V
2026-05-05 13:05:17 RF67 0.63% 8.3% 101% 10567 3.5 V
2026-05-05 13:04:51 RF01 0.75% 12.3% 101% 233709 4.22 V
2026-05-05 13:04:49 RF01 0.75% 12.3% 101% 233709 4.22 V
2026-05-05 13:04:49 RF01 0.75% 12.3% 101% 233709 4.22 V
2026-05-05 13:04:32 RF01 0.75% 12.3% 101% 233709 4.22 V
2026-05-05 13:04:32 RF01 0.75% 12.3% 101% 233709 4.22 V
2026-05-05 13:04:32 RF01 0.75% 12.3% 101% 233709 4.22 V
2026-05-05 13:02:35 Gert 1.46% 1.1% 86% 162257 4.03 V
2026-05-05 13:02:35 Gert 1.46% 1.1% 86% 162257 4.03 V
2026-05-05 13:02:20 Gert 1.46% 1.1% 86% 162257 4.03 V
2026-05-05 13:02:20 Gert 1.46% 1.1% 86% 162257 4.03 V
2026-05-05 13:02:20 Gert 1.46% 1.1% 86% 162257 4.03 V
2026-05-05 13:02:15 MELK 0.06% 0.0% 96% 4151354 4.14 V
2026-05-05 13:02:14 MELK 0.06% 0.0% 96% 4151354 4.14 V
2026-05-05 13:01:51 MELK 0.06% 0.0% 96% 4151354 4.14 V
2026-05-05 13:01:50 MELK 0.06% 0.0% 96% 4151354 4.14 V
2026-05-05 13:01:47 MELK 0.06% 0.0% 96% 4151354 4.14 V
2026-05-05 13:01:47 MELK 0.06% 0.0% 96% 4151354 4.14 V
2026-05-05 13:01:47 MELK 0.06% 0.0% 96% 4151354 4.14 V
2026-05-05 13:01:24 RF02 1.24% 0.9% 101% 2584565 4.21 V
2026-05-05 13:01:22 RF02 1.24% 0.9% 101% 2584565 4.21 V
2026-05-05 13:01:22 RF02 1.24% 0.9% 101% 2584565 4.21 V
2026-05-05 13:01:22 RF02 1.24% 0.9% 101% 2584565 4.21 V
2026-05-05 12:56:13 SMWS 0.9% 3.2% 51% 612795 3.73 V
2026-05-05 12:56:12 SMWS 0.9% 3.2% 51% 612795 3.73 V
2026-05-05 12:55:48 2625 0.21% 0.0% 100% 739919 4.2 V
2026-05-05 12:55:48 2625 0.21% 0.0% 100% 739919 4.2 V
2026-05-05 12:55:41 RLSC 996.09 hPa 72.35% 21.22°C
2026-05-05 12:55:41 RLSC 996.09 hPa 72.35% 21.22°C
2026-05-05 12:54:26 IIXF 847.06 hPa 38.77% 24.5°C 187.45 Ohm
2026-05-05 12:54:26 IIXF 847.06 hPa 38.77% 24.5°C 187.45 Ohm
2026-05-05 12:54:13 Wdst 1.07% 2.0% 72% 4196845 3.92 V
2026-05-05 12:54:13 Wdst 1.07% 2.0% 72% 4196845 3.92 V
2026-05-05 12:54:13 Wdst 1.07% 2.0% 72% 4196845 3.92 V
2026-05-05 12:54:01 HT77 866.03 hPa 48.16% 28.01°C
2026-05-05 12:54:01 HT77 866.03 hPa 48.16% 28.01°C
2026-05-05 12:54:00 IIXF 0.67% 1.8% 101% 95108 4.3 V
2026-05-05 12:54:00 IIXF 0.67% 1.8% 101% 95108 4.3 V
2026-05-05 12:53:20 MJTM 1.38% 1.1% 101% 1568374 4.24 V
2026-05-05 12:53:20 MJTM 1.38% 1.1% 101% 1568374 4.24 V
2026-05-05 12:53:13 MJTM 1.38% 1.1% 101% 1568374 4.24 V
2026-05-05 12:53:07 MJTM 1.38% 1.1% 101% 1568374 4.24 V
2026-05-05 12:53:07 MJTM 1.38% 1.1% 101% 1568374 4.24 V
2026-05-05 12:52:22 PcL1 0.14% 0.0% 101% 54195 4.24 V
2026-05-05 12:52:21 PcL1 0.14% 0.0% 101% 54195 4.24 V
2026-05-05 12:51:29 976c 0.46% 3.0% 101% 4498183 4.22 V
2026-05-05 12:51:29 976c 0.46% 3.0% 101% 4498183 4.22 V
2026-05-05 12:51:02 PTRH 0.18% 0.0% 53% 775779 3.74 V
2026-05-05 12:51:01 PTRH 0.18% 0.0% 53% 775779 3.74 V
2026-05-05 12:50:48 HT77 0.27% 0.0% 101% 791735 4.29 V
2026-05-05 12:50:46 HT77 0.27% 0.0% 101% 791735 4.29 V
2026-05-05 12:49:57 HAM2 1.61% 5.0% 93% 1017200 4.09 V
2026-05-05 12:49:56 HAM2 1.61% 5.0% 93% 1017200 4.09 V
2026-05-05 12:49:56 HAM2 1.61% 5.0% 93% 1017200 4.09 V
2026-05-05 12:49:19 HAM2 1.61% 5.0% 93% 1017200 4.09 V
2026-05-05 12:49:19 HAM2 1.61% 5.0% 93% 1017200 4.09 V
2026-05-05 12:49:19 HAM2 1.61% 5.0% 93% 1017200 4.09 V
2026-05-05 12:48:52 ZS1G 0.09% 20.5% 101% 46 4.24 V
2026-05-05 12:48:52 ZS1G 0.09% 20.5% 101% 46 4.24 V
2026-05-05 12:48:51 ZS1G 0.09% 20.5% 101% 46 4.24 V
2026-05-05 12:48:47 ZS1G 0.09% 20.5% 101% 46 4.24 V
2026-05-05 12:48:46 ZS1G 0.09% 20.5% 101% 46 4.24 V
2026-05-05 12:48:46 ZS1G 0.09% 20.5% 101% 46 4.24 V
2026-05-05 12:47:49 PMT2 1.76% 2.2% 101% 2698460 4.2 V
2026-05-05 12:47:47 PMT2 1.76% 2.2% 101% 2698460 4.2 V
2026-05-05 12:47:47 PMT2 1.76% 2.2% 101% 2698460 4.2 V
2026-05-05 12:47:13 RX01 0.02% 0.0% 101% 4398 0.0 V
2026-05-05 12:47:13 RX01 0.02% 0.0% 101% 4398 0.0 V
2026-05-05 12:46:53 ah03 1010.79 hPa 53.08% 20.02°C
2026-05-05 12:46:53 ah03 1010.79 hPa 53.08% 20.02°C
2026-05-05 12:46:53 ah03 1010.79 hPa 53.08% 20.02°C
2026-05-05 12:46:48 ah03 1010.79 hPa 53.08% 20.02°C
2026-05-05 12:46:47 ah03 1010.79 hPa 53.08% 20.02°C
2026-05-05 12:46:47 ah03 1010.79 hPa 53.08% 20.02°C
2026-05-05 12:42:49 7274 0.33% 0.0% 100% 7611874 4.12 V
2026-05-05 12:42:49 7274 0.33% 0.0% 100% 7611874 4.12 V
2026-05-05 12:42:49 7274 0.33% 0.0% 100% 7611874 4.12 V
2026-05-05 12:39:39 ZS1G 0.05% 9.9% 101% 46 4.24 V
2026-05-05 12:39:38 ZS1G 0.05% 9.9% 101% 46 4.24 V
2026-05-05 12:39:13 Wdst 0.93% 5.6% 72% 4195945 3.92 V
2026-05-05 12:39:12 Wdst 0.93% 5.6% 72% 4195945 3.92 V
2026-05-05 12:39:12 Wdst 0.93% 5.6% 72% 4195945 3.92 V
2026-05-05 12:38:52 ZS1G 0.05% 9.9% 101% 46 4.24 V
2026-05-05 12:38:51 ZS1G 0.05% 9.9% 101% 46 4.24 V
2026-05-05 12:38:23 RF06 1.04% 9.6% 101% 95349 -0.0 V
2026-05-05 12:38:21 RF06 1.04% 9.6% 101% 95349 -0.0 V
2026-05-05 12:38:21 RF06 1.04% 9.6% 101% 95349 -0.0 V
2026-05-05 12:38:20 RF06 1.04% 9.6% 101% 95349 -0.0 V
2026-05-05 12:38:02 RF06 1.04% 9.6% 101% 95349 -0.0 V
2026-05-05 12:38:01 RF06 1.04% 9.6% 101% 95349 -0.0 V
2026-05-05 12:38:01 RF06 1.04% 9.6% 101% 95349 -0.0 V
2026-05-05 12:37:44 SMWS 0.9% 0.0% 52% 611677 3.74 V
2026-05-05 12:37:43 SMWS 0.9% 0.0% 52% 611677 3.74 V
2026-05-05 12:37:43 SMWS 0.9% 0.0% 52% 611677 3.74 V
2026-05-05 12:37:26 2-D 0.51% 3.5% 100% 12746571 4.19 V
2026-05-05 12:37:26 2-D 0.51% 3.5% 100% 12746571 4.19 V
2026-05-05 12:37:15 2369 1.13% 15.6% 6% 96615 3.23 V
2026-05-05 12:37:15 2369 1.13% 15.6% 6% 96615 3.23 V
2026-05-05 12:37:15 2369 1.13% 15.6% 6% 96615 3.23 V
2026-05-05 12:36:26 IIXF 847.48 hPa 40.52% 24.37°C 184.75 Ohm
2026-05-05 12:36:26 IIXF 847.48 hPa 40.52% 24.37°C 184.75 Ohm
2026-05-05 12:36:00 IIXF 0.71% 1.8% 101% 94028 4.3 V
Visit MeshInfo-Lite on Github. Also visit the original MeshInfo by Kevin Elliott.